sensor_id;sensor_type;location;lat;lon;timestamp;P1;durP1;ratioP1;P2;durP2;ratioP2
15412;SDS011;7805;49.554;7.632;2022-11-20T00:01:39;6.00;;;5.40;;
15412;SDS011;7805;49.554;7.632;2022-11-20T00:04:04;5.50;;;5.00;;
15412;SDS011;7805;49.554;7.632;2022-11-20T00:06:30;5.37;;;4.83;;
15412;SDS011;7805;49.554;7.632;2022-11-20T00:08:56;5.80;;;5.20;;
15412;SDS011;7805;49.554;7.632;2022-11-20T00:11:25;5.23;;;4.73;;
15412;SDS011;7805;49.554;7.632;2022-11-20T00:13:52;5.83;;;5.27;;
15412;SDS011;7805;49.554;7.632;2022-11-20T00:16:20;5.73;;;5.20;;
15412;SDS011;7805;49.554;7.632;2022-11-20T00:18:48;6.20;;;5.60;;
15412;SDS011;7805;49.554;7.632;2022-11-20T00:21:15;6.40;;;5.70;;
15412;SDS011;7805;49.554;7.632;2022-11-20T00:23:46;8.50;;;7.40;;
15412;SDS011;7805;49.554;7.632;2022-11-20T00:26:13;8.40;;;7.40;;
15412;SDS011;7805;49.554;7.632;2022-11-20T00:28:40;7.47;;;6.67;;
15412;SDS011;7805;49.554;7.632;2022-11-20T00:31:08;7.80;;;6.80;;
15412;SDS011;7805;49.554;7.632;2022-11-20T00:33:35;8.47;;;6.80;;
15412;SDS011;7805;49.554;7.632;2022-11-20T00:36:04;8.83;;;7.30;;
15412;SDS011;7805;49.554;7.632;2022-11-20T00:38:31;7.67;;;6.63;;
15412;SDS011;7805;49.554;7.632;2022-11-20T00:40:58;6.80;;;6.07;;
15412;SDS011;7805;49.554;7.632;2022-11-20T00:43:24;7.80;;;7.00;;
15412;SDS011;7805;49.554;7.632;2022-11-20T00:45:50;8.43;;;7.53;;
15412;SDS011;7805;49.554;7.632;2022-11-20T00:48:21;9.67;;;7.67;;
15412;SDS011;7805;49.554;7.632;2022-11-20T00:50:46;9.00;;;7.53;;
15412;SDS011;7805;49.554;7.632;2022-11-20T00:53:12;7.93;;;6.63;;
15412;SDS011;7805;49.554;7.632;2022-11-20T00:55:37;9.30;;;7.80;;
15412;SDS011;7805;49.554;7.632;2022-11-20T00:58:03;9.43;;;7.47;;
15412;SDS011;7805;49.554;7.632;2022-11-20T01:00:28;9.93;;;7.77;;
15412;SDS011;7805;49.554;7.632;2022-11-20T01:02:55;10.90;;;8.33;;
15412;SDS011;7805;49.554;7.632;2022-11-20T01:05:20;9.07;;;8.07;;
15412;SDS011;7805;49.554;7.632;2022-11-20T01:07:46;14.17;;;9.27;;
15412;SDS011;7805;49.554;7.632;2022-11-20T01:10:12;25.50;;;16.93;;
15412;SDS011;7805;49.554;7.632;2022-11-20T01:12:37;20.33;;;14.90;;
15412;SDS011;7805;49.554;7.632;2022-11-20T01:15:03;9.43;;;8.43;;
15412;SDS011;7805;49.554;7.632;2022-11-20T01:17:28;11.60;;;8.63;;
15412;SDS011;7805;49.554;7.632;2022-11-20T01:19:56;10.70;;;8.67;;
15412;SDS011;7805;49.554;7.632;2022-11-20T01:22:22;10.53;;;8.27;;
15412;SDS011;7805;49.554;7.632;2022-11-20T01:24:47;10.63;;;7.77;;
15412;SDS011;7805;49.554;7.632;2022-11-20T01:27:13;10.67;;;8.33;;
15412;SDS011;7805;49.554;7.632;2022-11-20T01:29:39;11.23;;;9.73;;
15412;SDS011;7805;49.554;7.632;2022-11-20T01:32:04;11.60;;;9.43;;
15412;SDS011;7805;49.554;7.632;2022-11-20T01:34:30;9.90;;;7.40;;
15412;SDS011;7805;49.554;7.632;2022-11-20T01:36:55;9.10;;;7.30;;
15412;SDS011;7805;49.554;7.632;2022-11-20T01:39:22;9.13;;;7.60;;
15412;SDS011;7805;49.554;7.632;2022-11-20T01:41:49;9.30;;;7.33;;
15412;SDS011;7805;49.554;7.632;2022-11-20T01:44:48;11.87;;;7.50;;
15412;SDS011;7805;49.554;7.632;2022-11-20T01:47:16;8.60;;;7.30;;
15412;SDS011;7805;49.554;7.632;2022-11-20T01:49:48;9.47;;;7.13;;
15412;SDS011;7805;49.554;7.632;2022-11-20T01:52:20;8.07;;;6.77;;
15412;SDS011;7805;49.554;7.632;2022-11-20T01:54:53;13.20;;;10.13;;
15412;SDS011;7805;49.554;7.632;2022-11-20T01:57:22;10.87;;;9.37;;
15412;SDS011;7805;49.554;7.632;2022-11-20T01:59:57;9.40;;;7.53;;
15412;SDS011;7805;49.554;7.632;2022-11-20T02:02:29;8.93;;;7.67;;
15412;SDS011;7805;49.554;7.632;2022-11-20T02:04:55;8.00;;;6.90;;
15412;SDS011;7805;49.554;7.632;2022-11-20T02:07:25;8.93;;;7.13;;
15412;SDS011;7805;49.554;7.632;2022-11-20T02:09:52;10.90;;;9.27;;
15412;SDS011;7805;49.554;7.632;2022-11-20T02:12:18;12.97;;;9.83;;
15412;SDS011;7805;49.554;7.632;2022-11-20T02:15:02;11.07;;;8.47;;
15412;SDS011;7805;49.554;7.632;2022-11-20T02:17:28;8.50;;;7.30;;
15412;SDS011;7805;49.554;7.632;2022-11-20T02:19:54;7.27;;;6.23;;
15412;SDS011;7805;49.554;7.632;2022-11-20T02:22:41;6.70;;;5.27;;
15412;SDS011;7805;49.554;7.632;2022-11-20T02:25:15;5.50;;;4.87;;
15412;SDS011;7805;49.554;7.632;2022-11-20T02:27:42;6.80;;;5.20;;
15412;SDS011;7805;49.554;7.632;2022-11-20T02:30:08;6.87;;;5.00;;
15412;SDS011;7805;49.554;7.632;2022-11-20T02:32:36;5.83;;;5.23;;
15412;SDS011;7805;49.554;7.632;2022-11-20T02:35:09;6.70;;;6.00;;
15412;SDS011;7805;49.554;7.632;2022-11-20T02:37:44;6.10;;;5.50;;
15412;SDS011;7805;49.554;7.632;2022-11-20T02:40:12;7.10;;;5.87;;
15412;SDS011;7805;49.554;7.632;2022-11-20T02:42:38;7.77;;;5.73;;
15412;SDS011;7805;49.554;7.632;2022-11-20T02:45:04;7.20;;;5.87;;
15412;SDS011;7805;49.554;7.632;2022-11-20T02:47:31;6.60;;;5.63;;
15412;SDS011;7805;49.554;7.632;2022-11-20T02:49:56;8.37;;;6.97;;
15412;SDS011;7805;49.554;7.632;2022-11-20T02:52:22;6.80;;;6.03;;
15412;SDS011;7805;49.554;7.632;2022-11-20T02:54:48;7.23;;;5.60;;
15412;SDS011;7805;49.554;7.632;2022-11-20T02:57:14;6.60;;;5.77;;
15412;SDS011;7805;49.554;7.632;2022-11-20T02:59:39;5.53;;;4.97;;
15412;SDS011;7805;49.554;7.632;2022-11-20T03:02:05;5.93;;;5.33;;
15412;SDS011;7805;49.554;7.632;2022-11-20T03:04:30;6.03;;;5.43;;
15412;SDS011;7805;49.554;7.632;2022-11-20T03:06:56;6.10;;;5.50;;
15412;SDS011;7805;49.554;7.632;2022-11-20T03:09:22;6.17;;;5.40;;
15412;SDS011;7805;49.554;7.632;2022-11-20T03:11:47;7.70;;;6.70;;
15412;SDS011;7805;49.554;7.632;2022-11-20T03:14:13;6.40;;;5.70;;
15412;SDS011;7805;49.554;7.632;2022-11-20T03:16:39;7.47;;;5.93;;
15412;SDS011;7805;49.554;7.632;2022-11-20T03:19:05;7.50;;;6.00;;
15412;SDS011;7805;49.554;7.632;2022-11-20T03:21:32;5.63;;;4.53;;
15412;SDS011;7805;49.554;7.632;2022-11-20T03:23:58;5.83;;;5.17;;
15412;SDS011;7805;49.554;7.632;2022-11-20T03:26:25;5.60;;;5.03;;
15412;SDS011;7805;49.554;7.632;2022-11-20T03:29:01;5.37;;;4.87;;
15412;SDS011;7805;49.554;7.632;2022-11-20T03:31:39;5.10;;;4.60;;
15412;SDS011;7805;49.554;7.632;2022-11-20T03:34:06;5.70;;;5.10;;
15412;SDS011;7805;49.554;7.632;2022-11-20T03:36:33;5.17;;;4.67;;
15412;SDS011;7805;49.554;7.632;2022-11-20T03:38:59;10.50;;;7.70;;
15412;SDS011;7805;49.554;7.632;2022-11-20T03:41:26;6.83;;;6.07;;
15412;SDS011;7805;49.554;7.632;2022-11-20T03:44:00;8.60;;;7.10;;
15412;SDS011;7805;49.554;7.632;2022-11-20T03:46:27;11.90;;;7.77;;
15412;SDS011;7805;49.554;7.632;2022-11-20T03:48:54;8.37;;;5.77;;
15412;SDS011;7805;49.554;7.632;2022-11-20T03:51:33;6.77;;;4.73;;
15412;SDS011;7805;49.554;7.632;2022-11-20T03:54:00;6.47;;;5.73;;
15412;SDS011;7805;49.554;7.632;2022-11-20T03:56:29;6.67;;;5.40;;
15412;SDS011;7805;49.554;7.632;2022-11-20T03:58:57;5.53;;;4.80;;
15412;SDS011;7805;49.554;7.632;2022-11-20T04:01:24;4.40;;;4.00;;
15412;SDS011;7805;49.554;7.632;2022-11-20T04:03:51;4.77;;;4.33;;
15412;SDS011;7805;49.554;7.632;2022-11-20T04:06:22;6.53;;;5.37;;
15412;SDS011;7805;49.554;7.632;2022-11-20T04:08:49;5.93;;;5.27;;
15412;SDS011;7805;49.554;7.632;2022-11-20T04:11:17;6.03;;;5.43;;
15412;SDS011;7805;49.554;7.632;2022-11-20T04:13:51;7.23;;;5.67;;
15412;SDS011;7805;49.554;7.632;2022-11-20T04:16:20;7.97;;;5.90;;
15412;SDS011;7805;49.554;7.632;2022-11-20T04:18:46;6.87;;;5.33;;
15412;SDS011;7805;49.554;7.632;2022-11-20T04:21:12;7.07;;;5.47;;
15412;SDS011;7805;49.554;7.632;2022-11-20T04:23:38;5.90;;;4.50;;
15412;SDS011;7805;49.554;7.632;2022-11-20T04:26:07;6.07;;;5.33;;
15412;SDS011;7805;49.554;7.632;2022-11-20T04:28:35;6.30;;;5.00;;
15412;SDS011;7805;49.554;7.632;2022-11-20T04:31:02;8.20;;;5.47;;
15412;SDS011;7805;49.554;7.632;2022-11-20T04:33:32;5.87;;;4.80;;
15412;SDS011;7805;49.554;7.632;2022-11-20T04:36:02;7.57;;;5.47;;
15412;SDS011;7805;49.554;7.632;2022-11-20T04:38:29;8.47;;;5.63;;
15412;SDS011;7805;49.554;7.632;2022-11-20T04:40:56;7.20;;;5.03;;
15412;SDS011;7805;49.554;7.632;2022-11-20T04:43:23;6.33;;;5.40;;
15412;SDS011;7805;49.554;7.632;2022-11-20T04:45:53;5.90;;;5.13;;
15412;SDS011;7805;49.554;7.632;2022-11-20T04:48:20;6.83;;;5.70;;
15412;SDS011;7805;49.554;7.632;2022-11-20T04:50:46;7.43;;;6.17;;
15412;SDS011;7805;49.554;7.632;2022-11-20T04:53:11;5.33;;;4.73;;
15412;SDS011;7805;49.554;7.632;2022-11-20T04:55:37;6.50;;;4.97;;
15412;SDS011;7805;49.554;7.632;2022-11-20T04:58:02;8.57;;;5.90;;
15412;SDS011;7805;49.554;7.632;2022-11-20T05:00:28;8.63;;;5.70;;
15412;SDS011;7805;49.554;7.632;2022-11-20T05:02:53;7.23;;;5.80;;
15412;SDS011;7805;49.554;7.632;2022-11-20T05:05:19;10.80;;;7.07;;
15412;SDS011;7805;49.554;7.632;2022-11-20T05:07:45;8.77;;;6.37;;
15412;SDS011;7805;49.554;7.632;2022-11-20T05:10:10;7.23;;;5.67;;
15412;SDS011;7805;49.554;7.632;2022-11-20T05:12:36;6.40;;;5.33;;
15412;SDS011;7805;49.554;7.632;2022-11-20T05:15:01;7.90;;;5.70;;
15412;SDS011;7805;49.554;7.632;2022-11-20T05:17:27;6.87;;;5.40;;
15412;SDS011;7805;49.554;7.632;2022-11-20T05:19:52;6.30;;;5.33;;
15412;SDS011;7805;49.554;7.632;2022-11-20T05:22:18;6.43;;;5.30;;
15412;SDS011;7805;49.554;7.632;2022-11-20T05:24:43;6.90;;;5.50;;
15412;SDS011;7805;49.554;7.632;2022-11-20T05:27:09;8.67;;;5.63;;
15412;SDS011;7805;49.554;7.632;2022-11-20T05:29:34;6.97;;;5.47;;
15412;SDS011;7805;49.554;7.632;2022-11-20T05:32:00;7.70;;;6.37;;
15412;SDS011;7805;49.554;7.632;2022-11-20T05:34:26;8.57;;;6.80;;
15412;SDS011;7805;49.554;7.632;2022-11-20T05:36:51;8.00;;;5.80;;
15412;SDS011;7805;49.554;7.632;2022-11-20T05:39:17;7.00;;;6.00;;
15412;SDS011;7805;49.554;7.632;2022-11-20T05:41:42;7.33;;;5.93;;
15412;SDS011;7805;49.554;7.632;2022-11-20T05:44:10;8.20;;;5.90;;
15412;SDS011;7805;49.554;7.632;2022-11-20T05:46:36;6.10;;;5.47;;
15412;SDS011;7805;49.554;7.632;2022-11-20T05:49:02;7.53;;;5.97;;
15412;SDS011;7805;49.554;7.632;2022-11-20T05:51:27;7.80;;;6.00;;
15412;SDS011;7805;49.554;7.632;2022-11-20T05:53:53;7.40;;;5.70;;
15412;SDS011;7805;49.554;7.632;2022-11-20T05:56:21;9.30;;;6.63;;
15412;SDS011;7805;49.554;7.632;2022-11-20T05:58:47;7.97;;;6.43;;
15412;SDS011;7805;49.554;7.632;2022-11-20T06:03:41;8.77;;;5.80;;
15412;SDS011;7805;49.554;7.632;2022-11-20T06:06:10;6.87;;;5.23;;
15412;SDS011;7805;49.554;7.632;2022-11-20T06:08:37;7.80;;;5.93;;
15412;SDS011;7805;49.554;7.632;2022-11-20T06:11:03;6.83;;;6.10;;
15412;SDS011;7805;49.554;7.632;2022-11-20T06:13:30;7.80;;;5.53;;
15412;SDS011;7805;49.554;7.632;2022-11-20T06:15:56;6.70;;;5.60;;
15412;SDS011;7805;49.554;7.632;2022-11-20T06:18:22;9.07;;;6.27;;
15412;SDS011;7805;49.554;7.632;2022-11-20T06:20:47;8.37;;;6.17;;
15412;SDS011;7805;49.554;7.632;2022-11-20T06:23:13;8.83;;;6.60;;
15412;SDS011;7805;49.554;7.632;2022-11-20T06:25:42;7.57;;;6.07;;
15412;SDS011;7805;49.554;7.632;2022-11-20T06:28:08;7.47;;;5.53;;
15412;SDS011;7805;49.554;7.632;2022-11-20T06:30:34;8.43;;;7.20;;
15412;SDS011;7805;49.554;7.632;2022-11-20T06:33:00;10.30;;;7.87;;
15412;SDS011;7805;49.554;7.632;2022-11-20T06:35:26;10.03;;;7.03;;
15412;SDS011;7805;49.554;7.632;2022-11-20T06:37:51;8.17;;;7.10;;
15412;SDS011;7805;49.554;7.632;2022-11-20T06:40:17;7.80;;;6.30;;
15412;SDS011;7805;49.554;7.632;2022-11-20T06:42:43;8.53;;;6.17;;
15412;SDS011;7805;49.554;7.632;2022-11-20T06:45:08;8.87;;;6.63;;
15412;SDS011;7805;49.554;7.632;2022-11-20T06:47:34;8.33;;;7.43;;
15412;SDS011;7805;49.554;7.632;2022-11-20T06:50:00;7.47;;;6.37;;
15412;SDS011;7805;49.554;7.632;2022-11-20T06:52:25;9.87;;;7.30;;
15412;SDS011;7805;49.554;7.632;2022-11-20T06:54:51;12.90;;;10.50;;
15412;SDS011;7805;49.554;7.632;2022-11-20T06:57:17;16.87;;;12.17;;
15412;SDS011;7805;49.554;7.632;2022-11-20T06:59:42;20.50;;;13.50;;
15412;SDS011;7805;49.554;7.632;2022-11-20T07:02:11;14.00;;;12.50;;
15412;SDS011;7805;49.554;7.632;2022-11-20T07:04:37;15.90;;;14.30;;
15412;SDS011;7805;49.554;7.632;2022-11-20T07:07:03;10.33;;;9.30;;
15412;SDS011;7805;49.554;7.632;2022-11-20T07:09:28;11.27;;;10.13;;
15412;SDS011;7805;49.554;7.632;2022-11-20T07:11:54;14.00;;;12.57;;
15412;SDS011;7805;49.554;7.632;2022-11-20T07:14:20;17.43;;;13.43;;
15412;SDS011;7805;49.554;7.632;2022-11-20T07:16:45;14.37;;;12.80;;
15412;SDS011;7805;49.554;7.632;2022-11-20T07:19:11;28.93;;;20.77;;
15412;SDS011;7805;49.554;7.632;2022-11-20T07:21:36;36.63;;;26.97;;
15412;SDS011;7805;49.554;7.632;2022-11-20T07:24:02;32.67;;;23.30;;
15412;SDS011;7805;49.554;7.632;2022-11-20T07:26:27;40.03;;;28.20;;
15412;SDS011;7805;49.554;7.632;2022-11-20T07:28:53;35.10;;;26.40;;
15412;SDS011;7805;49.554;7.632;2022-11-20T07:31:19;36.07;;;27.30;;
15412;SDS011;7805;49.554;7.632;2022-11-20T07:33:44;30.33;;;23.70;;
15412;SDS011;7805;49.554;7.632;2022-11-20T07:36:10;26.37;;;21.17;;
15412;SDS011;7805;49.554;7.632;2022-11-20T07:38:36;23.53;;;19.70;;
15412;SDS011;7805;49.554;7.632;2022-11-20T07:41:02;24.00;;;18.97;;
15412;SDS011;7805;49.554;7.632;2022-11-20T07:43:28;20.77;;;17.43;;
15412;SDS011;7805;49.554;7.632;2022-11-20T07:45:54;17.63;;;13.40;;
15412;SDS011;7805;49.554;7.632;2022-11-20T07:48:21;16.90;;;14.53;;
15412;SDS011;7805;49.554;7.632;2022-11-20T07:50:47;14.67;;;13.17;;
15412;SDS011;7805;49.554;7.632;2022-11-20T07:53:12;16.50;;;12.20;;
15412;SDS011;7805;49.554;7.632;2022-11-20T07:55:39;11.83;;;9.00;;
15412;SDS011;7805;49.554;7.632;2022-11-20T07:58:04;17.00;;;9.87;;
15412;SDS011;7805;49.554;7.632;2022-11-20T08:00:30;12.07;;;10.17;;
15412;SDS011;7805;49.554;7.632;2022-11-20T08:02:56;10.47;;;9.37;;
15412;SDS011;7805;49.554;7.632;2022-11-20T08:05:21;8.53;;;6.70;;
15412;SDS011;7805;49.554;7.632;2022-11-20T08:07:47;12.23;;;10.57;;
15412;SDS011;7805;49.554;7.632;2022-11-20T08:10:13;13.93;;;10.27;;
15412;SDS011;7805;49.554;7.632;2022-11-20T08:12:47;14.47;;;11.27;;
15412;SDS011;7805;49.554;7.632;2022-11-20T08:15:32;13.87;;;10.33;;
15412;SDS011;7805;49.554;7.632;2022-11-20T08:17:59;11.17;;;9.53;;
15412;SDS011;7805;49.554;7.632;2022-11-20T08:20:26;11.07;;;8.90;;
15412;SDS011;7805;49.554;7.632;2022-11-20T08:22:51;8.43;;;7.27;;
15412;SDS011;7805;49.554;7.632;2022-11-20T08:25:17;12.17;;;10.63;;
15412;SDS011;7805;49.554;7.632;2022-11-20T08:27:43;11.97;;;8.67;;
15412;SDS011;7805;49.554;7.632;2022-11-20T08:30:09;12.67;;;10.90;;
15412;SDS011;7805;49.554;7.632;2022-11-20T08:32:35;12.70;;;11.40;;
15412;SDS011;7805;49.554;7.632;2022-11-20T08:35:02;11.50;;;10.30;;
15412;SDS011;7805;49.554;7.632;2022-11-20T08:37:28;13.10;;;11.80;;
15412;SDS011;7805;49.554;7.632;2022-11-20T08:39:53;11.37;;;9.20;;
15412;SDS011;7805;49.554;7.632;2022-11-20T08:42:21;17.47;;;15.73;;
15412;SDS011;7805;49.554;7.632;2022-11-20T08:44:47;10.97;;;9.87;;
15412;SDS011;7805;49.554;7.632;2022-11-20T08:47:13;11.03;;;9.97;;
15412;SDS011;7805;49.554;7.632;2022-11-20T08:49:38;13.50;;;11.57;;
15412;SDS011;7805;49.554;7.632;2022-11-20T08:52:04;8.70;;;7.90;;
15412;SDS011;7805;49.554;7.632;2022-11-20T08:54:30;8.93;;;7.47;;
15412;SDS011;7805;49.554;7.632;2022-11-20T08:56:56;8.83;;;7.93;;
15412;SDS011;7805;49.554;7.632;2022-11-20T08:59:21;10.80;;;9.13;;
15412;SDS011;7805;49.554;7.632;2022-11-20T09:01:47;10.97;;;9.60;;
15412;SDS011;7805;49.554;7.632;2022-11-20T09:04:12;14.37;;;11.23;;
15412;SDS011;7805;49.554;7.632;2022-11-20T09:06:39;16.83;;;11.50;;
15412;SDS011;7805;49.554;7.632;2022-11-20T09:09:05;10.53;;;8.97;;
15412;SDS011;7805;49.554;7.632;2022-11-20T09:11:31;9.63;;;8.50;;
15412;SDS011;7805;49.554;7.632;2022-11-20T09:13:56;5.30;;;4.80;;
15412;SDS011;7805;49.554;7.632;2022-11-20T09:16:22;6.83;;;5.10;;
15412;SDS011;7805;49.554;7.632;2022-11-20T09:18:49;4.40;;;4.00;;
15412;SDS011;7805;49.554;7.632;2022-11-20T09:21:15;5.67;;;5.10;;
15412;SDS011;7805;49.554;7.632;2022-11-20T09:23:41;8.83;;;6.90;;
15412;SDS011;7805;49.554;7.632;2022-11-20T09:26:09;5.83;;;4.73;;
15412;SDS011;7805;49.554;7.632;2022-11-20T09:28:36;4.50;;;4.10;;
15412;SDS011;7805;49.554;7.632;2022-11-20T09:31:09;5.53;;;4.77;;
15412;SDS011;7805;49.554;7.632;2022-11-20T09:33:42;6.77;;;4.47;;
15412;SDS011;7805;49.554;7.632;2022-11-20T09:36:08;5.20;;;4.70;;
15412;SDS011;7805;49.554;7.632;2022-11-20T09:38:33;4.17;;;3.87;;
15412;SDS011;7805;49.554;7.632;2022-11-20T09:41:03;6.30;;;5.70;;
15412;SDS011;7805;49.554;7.632;2022-11-20T09:51:59;6.30;;;5.70;;
15412;SDS011;7805;49.554;7.632;2022-11-20T09:54:35;5.40;;;4.80;;
15412;SDS011;7805;49.554;7.632;2022-11-20T09:57:20;4.77;;;4.37;;
15412;SDS011;7805;49.554;7.632;2022-11-20T09:59:51;5.97;;;4.93;;
15412;SDS011;7805;49.554;7.632;2022-11-20T10:02:28;5.87;;;5.07;;
15412;SDS011;7805;49.554;7.632;2022-11-20T10:05:10;6.20;;;4.50;;
15412;SDS011;7805;49.554;7.632;2022-11-20T10:10:31;4.17;;;3.77;;
15412;SDS011;7805;49.554;7.632;2022-11-20T10:22:02;3.67;;;3.37;;
15412;SDS011;7805;49.554;7.632;2022-11-20T10:30:00;3.43;;;3.13;;
15412;SDS011;7805;49.554;7.632;2022-11-20T10:32:35;4.10;;;3.13;;
15412;SDS011;7805;49.554;7.632;2022-11-20T10:35:18;2.97;;;2.70;;
15412;SDS011;7805;49.554;7.632;2022-11-20T10:38:05;3.73;;;3.07;;
15412;SDS011;7805;49.554;7.632;2022-11-20T10:40:46;3.07;;;2.60;;
15412;SDS011;7805;49.554;7.632;2022-11-20T10:43:21;4.57;;;3.30;;
15412;SDS011;7805;49.554;7.632;2022-11-20T10:45:58;4.23;;;2.90;;
15412;SDS011;7805;49.554;7.632;2022-11-20T10:48:30;4.40;;;4.00;;
15412;SDS011;7805;49.554;7.632;2022-11-20T10:56:25;3.40;;;2.60;;
15412;SDS011;7805;49.554;7.632;2022-11-20T10:59:10;5.53;;;3.07;;
15412;SDS011;7805;49.554;7.632;2022-11-20T11:01:52;4.83;;;2.80;;
15412;SDS011;7805;49.554;7.632;2022-11-20T11:04:40;3.87;;;2.97;;
15412;SDS011;7805;49.554;7.632;2022-11-20T11:10:01;3.87;;;2.30;;
15412;SDS011;7805;49.554;7.632;2022-11-20T11:12:51;3.57;;;2.60;;
15412;SDS011;7805;49.554;7.632;2022-11-20T11:18:03;3.67;;;2.60;;
15412;SDS011;7805;49.554;7.632;2022-11-20T11:20:28;4.97;;;3.10;;
15412;SDS011;7805;49.554;7.632;2022-11-20T11:22:55;5.60;;;2.90;;
15412;SDS011;7805;49.554;7.632;2022-11-20T11:27:48;5.50;;;2.40;;
15412;SDS011;7805;49.554;7.632;2022-11-20T11:30:15;4.43;;;2.57;;
15412;SDS011;7805;49.554;7.632;2022-11-20T11:32:43;9.27;;;2.60;;
15412;SDS011;7805;49.554;7.632;2022-11-20T11:35:26;5.40;;;2.17;;
15412;SDS011;7805;49.554;7.632;2022-11-20T11:37:54;5.43;;;2.13;;
15412;SDS011;7805;49.554;7.632;2022-11-20T11:40:32;3.43;;;2.13;;
15412;SDS011;7805;49.554;7.632;2022-11-20T11:43:02;10.50;;;2.53;;
15412;SDS011;7805;49.554;7.632;2022-11-20T11:45:52;3.40;;;1.97;;
15412;SDS011;7805;49.554;7.632;2022-11-20T11:48:19;7.53;;;2.33;;
15412;SDS011;7805;49.554;7.632;2022-11-20T11:50:49;3.83;;;2.47;;
15412;SDS011;7805;49.554;7.632;2022-11-20T11:53:17;6.33;;;2.00;;
15412;SDS011;7805;49.554;7.632;2022-11-20T11:58:48;5.10;;;3.00;;
15412;SDS011;7805;49.554;7.632;2022-11-20T12:06:43;5.83;;;2.90;;
15412;SDS011;7805;49.554;7.632;2022-11-20T12:09:12;4.93;;;2.80;;
15412;SDS011;7805;49.554;7.632;2022-11-20T12:12:40;8.13;;;2.80;;
15412;SDS011;7805;49.554;7.632;2022-11-20T12:14:54;4.07;;;2.43;;
15412;SDS011;7805;49.554;7.632;2022-11-20T12:17:22;9.87;;;4.53;;
15412;SDS011;7805;49.554;7.632;2022-11-20T12:19:49;7.27;;;4.47;;
15412;SDS011;7805;49.554;7.632;2022-11-20T12:30:15;3.80;;;2.77;;
15412;SDS011;7805;49.554;7.632;2022-11-20T12:47:17;3.23;;;2.50;;
15412;SDS011;7805;49.554;7.632;2022-11-20T12:55:16;4.43;;;2.33;;
15412;SDS011;7805;49.554;7.632;2022-11-20T12:58:05;4.43;;;2.70;;
15412;SDS011;7805;49.554;7.632;2022-11-20T13:01:37;4.43;;;2.03;;
15412;SDS011;7805;49.554;7.632;2022-11-20T13:06:58;5.53;;;2.53;;
15412;SDS011;7805;49.554;7.632;2022-11-20T13:09:27;5.10;;;2.20;;
15412;SDS011;7805;49.554;7.632;2022-11-20T13:14:58;4.80;;;2.10;;
15412;SDS011;7805;49.554;7.632;2022-11-20T13:17:59;2.80;;;1.37;;
15412;SDS011;7805;49.554;7.632;2022-11-20T13:20:27;2.97;;;1.33;;
15412;SDS011;7805;49.554;7.632;2022-11-20T13:22:55;1.93;;;1.43;;
15412;SDS011;7805;49.554;7.632;2022-11-20T13:25:25;3.50;;;1.60;;
15412;SDS011;7805;49.554;7.632;2022-11-20T13:27:51;3.97;;;1.50;;
15412;SDS011;7805;49.554;7.632;2022-11-20T13:30:18;3.27;;;1.77;;
15412;SDS011;7805;49.554;7.632;2022-11-20T13:32:52;3.00;;;1.77;;
15412;SDS011;7805;49.554;7.632;2022-11-20T13:35:27;3.77;;;1.30;;
15412;SDS011;7805;49.554;7.632;2022-11-20T13:38:01;4.27;;;1.50;;
15412;SDS011;7805;49.554;7.632;2022-11-20T13:40:27;2.13;;;1.37;;
15412;SDS011;7805;49.554;7.632;2022-11-20T13:45:33;3.47;;;1.80;;
15412;SDS011;7805;49.554;7.632;2022-11-20T13:48:04;5.50;;;1.63;;
15412;SDS011;7805;49.554;7.632;2022-11-20T13:50:50;4.53;;;1.90;;
15412;SDS011;7805;49.554;7.632;2022-11-20T13:59:36;5.07;;;1.53;;
15412;SDS011;7805;49.554;7.632;2022-11-20T14:02:12;2.13;;;1.53;;
15412;SDS011;7805;49.554;7.632;2022-11-20T14:04:41;1.97;;;1.77;;
15412;SDS011;7805;49.554;7.632;2022-11-20T14:07:11;5.17;;;2.67;;
15412;SDS011;7805;49.554;7.632;2022-11-20T14:09:37;7.60;;;4.13;;
15412;SDS011;7805;49.554;7.632;2022-11-20T14:12:03;4.53;;;2.33;;
15412;SDS011;7805;49.554;7.632;2022-11-20T14:14:46;4.03;;;1.50;;
15412;SDS011;7805;49.554;7.632;2022-11-20T14:20:06;5.00;;;1.93;;
15412;SDS011;7805;49.554;7.632;2022-11-20T14:22:39;6.07;;;2.37;;
15412;SDS011;7805;49.554;7.632;2022-11-20T14:27:40;2.83;;;1.53;;
15412;SDS011;7805;49.554;7.632;2022-11-20T14:30:14;4.37;;;1.30;;
15412;SDS011;7805;49.554;7.632;2022-11-20T14:32:41;2.93;;;1.30;;
15412;SDS011;7805;49.554;7.632;2022-11-20T14:35:09;2.90;;;1.20;;
15412;SDS011;7805;49.554;7.632;2022-11-20T14:37:43;1.90;;;1.17;;
15412;SDS011;7805;49.554;7.632;2022-11-20T14:40:23;2.50;;;1.33;;
15412;SDS011;7805;49.554;7.632;2022-11-20T14:42:49;2.87;;;1.87;;
15412;SDS011;7805;49.554;7.632;2022-11-20T14:45:15;2.83;;;1.20;;
15412;SDS011;7805;49.554;7.632;2022-11-20T14:47:41;3.57;;;1.97;;
15412;SDS011;7805;49.554;7.632;2022-11-20T14:50:28;10.57;;;2.40;;
15412;SDS011;7805;49.554;7.632;2022-11-20T14:52:55;3.57;;;2.07;;
15412;SDS011;7805;49.554;7.632;2022-11-20T14:55:29;2.97;;;2.10;;
15412;SDS011;7805;49.554;7.632;2022-11-20T14:58:03;7.93;;;2.30;;
15412;SDS011;7805;49.554;7.632;2022-11-20T15:00:31;3.30;;;2.07;;
15412;SDS011;7805;49.554;7.632;2022-11-20T15:02:58;4.90;;;1.60;;
15412;SDS011;7805;49.554;7.632;2022-11-20T15:05:25;4.43;;;2.00;;
15412;SDS011;7805;49.554;7.632;2022-11-20T15:08:09;3.77;;;1.57;;
15412;SDS011;7805;49.554;7.632;2022-11-20T15:10:35;4.43;;;1.57;;
15412;SDS011;7805;49.554;7.632;2022-11-20T15:13:03;3.13;;;1.90;;
15412;SDS011;7805;49.554;7.632;2022-11-20T15:15:36;7.00;;;4.67;;
15412;SDS011;7805;49.554;7.632;2022-11-20T15:18:12;5.33;;;4.83;;
15412;SDS011;7805;49.554;7.632;2022-11-20T15:20:40;5.73;;;3.73;;
15412;SDS011;7805;49.554;7.632;2022-11-20T15:23:16;2.97;;;2.70;;
15412;SDS011;7805;49.554;7.632;2022-11-20T15:25:43;4.30;;;3.07;;
15412;SDS011;7805;49.554;7.632;2022-11-20T15:28:16;4.83;;;2.07;;
15412;SDS011;7805;49.554;7.632;2022-11-20T15:30:52;2.73;;;1.67;;
15412;SDS011;7805;49.554;7.632;2022-11-20T15:33:18;4.07;;;2.33;;
15412;SDS011;7805;49.554;7.632;2022-11-20T15:35:44;3.30;;;2.60;;
15412;SDS011;7805;49.554;7.632;2022-11-20T15:38:10;4.80;;;2.17;;
15412;SDS011;7805;49.554;7.632;2022-11-20T15:40:35;4.93;;;2.30;;
15412;SDS011;7805;49.554;7.632;2022-11-20T15:43:01;4.20;;;2.43;;
15412;SDS011;7805;49.554;7.632;2022-11-20T15:46:06;2.50;;;2.30;;
15412;SDS011;7805;49.554;7.632;2022-11-20T15:48:44;3.93;;;1.80;;
15412;SDS011;7805;49.554;7.632;2022-11-20T15:53:39;2.43;;;1.80;;
15412;SDS011;7805;49.554;7.632;2022-11-20T15:56:08;3.77;;;1.47;;
15412;SDS011;7805;49.554;7.632;2022-11-20T15:58:36;3.63;;;1.70;;
15412;SDS011;7805;49.554;7.632;2022-11-20T16:01:03;4.40;;;2.20;;
15412;SDS011;7805;49.554;7.632;2022-11-20T16:03:28;2.93;;;1.70;;
15412;SDS011;7805;49.554;7.632;2022-11-20T16:05:54;4.37;;;1.80;;
15412;SDS011;7805;49.554;7.632;2022-11-20T16:08:20;4.93;;;1.37;;
15412;SDS011;7805;49.554;7.632;2022-11-20T16:10:46;3.77;;;1.57;;
15412;SDS011;7805;49.554;7.632;2022-11-20T16:13:12;3.23;;;1.73;;
15412;SDS011;7805;49.554;7.632;2022-11-20T16:15:59;7.27;;;2.43;;
15412;SDS011;7805;49.554;7.632;2022-11-20T16:18:29;3.30;;;1.93;;
15412;SDS011;7805;49.554;7.632;2022-11-20T16:20:55;4.70;;;2.10;;
15412;SDS011;7805;49.554;7.632;2022-11-20T16:23:21;6.07;;;2.23;;
15412;SDS011;7805;49.554;7.632;2022-11-20T16:25:47;5.97;;;2.47;;
15412;SDS011;7805;49.554;7.632;2022-11-20T16:28:13;4.27;;;1.93;;
15412;SDS011;7805;49.554;7.632;2022-11-20T16:30:39;5.57;;;2.23;;
15412;SDS011;7805;49.554;7.632;2022-11-20T16:33:08;6.47;;;3.10;;
15412;SDS011;7805;49.554;7.632;2022-11-20T16:35:39;6.07;;;2.90;;
15412;SDS011;7805;49.554;7.632;2022-11-20T16:38:05;6.23;;;2.97;;
15412;SDS011;7805;49.554;7.632;2022-11-20T16:40:31;3.80;;;3.10;;
15412;SDS011;7805;49.554;7.632;2022-11-20T16:42:56;4.10;;;2.17;;
15412;SDS011;7805;49.554;7.632;2022-11-20T16:45:22;5.63;;;3.03;;
15412;SDS011;7805;49.554;7.632;2022-11-20T16:47:48;4.40;;;2.90;;
15412;SDS011;7805;49.554;7.632;2022-11-20T16:50:14;4.73;;;2.27;;